createdAt,value
2022-12-12T00:01:18.125Z,-2.55
2022-12-12T00:03:46.605Z,-2.65
2022-12-12T00:06:39.703Z,-2.41
2022-12-12T00:09:09.524Z,-2.17
2022-12-12T00:11:38.881Z,-2.11
2022-12-12T00:14:07.170Z,-2.29
2022-12-12T00:16:35.149Z,-2.39
2022-12-12T00:19:03.291Z,-2.19
2022-12-12T00:21:31.467Z,-2.32
2022-12-12T00:23:59.730Z,-2.14
2022-12-12T00:26:29.932Z,-2.30
2022-12-12T00:29:00.663Z,-2.18
2022-12-12T00:31:29.719Z,-2.29
2022-12-12T00:33:58.228Z,-2.56
2022-12-12T00:36:29.337Z,-2.44
2022-12-12T00:38:58.170Z,-2.25
2022-12-12T00:41:26.314Z,-2.33
2022-12-12T00:43:54.448Z,-2.24
2022-12-12T00:46:26.380Z,-2.59
2022-12-12T00:48:56.277Z,-2.45
2022-12-12T00:51:26.910Z,-2.22
2022-12-12T00:53:57.904Z,-2.59
2022-12-12T00:56:27.301Z,-2.34
2022-12-12T00:58:55.653Z,-2.66
2022-12-12T01:01:28.003Z,-2.42
2022-12-12T01:03:56.539Z,-2.59
2022-12-12T01:06:25.061Z,-2.88
2022-12-12T01:08:53.907Z,-2.77
2022-12-12T01:11:22.656Z,-2.54
2022-12-12T01:13:52.996Z,-2.31
2022-12-12T01:16:21.877Z,-2.31
2022-12-12T01:18:51.761Z,-2.40
2022-12-12T01:21:21.362Z,-2.74
2022-12-12T01:23:49.847Z,-2.72
2022-12-12T01:26:20.390Z,-2.66
2022-12-12T01:29:45.191Z,-2.60
2022-12-12T01:32:13.542Z,-2.95
2022-12-12T01:34:42.824Z,-2.65
2022-12-12T01:37:11.035Z,-2.59
2022-12-12T01:39:39.017Z,-2.77
2022-12-12T01:42:14.078Z,-2.68
2022-12-12T01:44:45.210Z,-2.32
2022-12-12T01:47:14.711Z,-2.43
2022-12-12T01:49:47.877Z,-2.36
2022-12-12T01:52:20.878Z,-2.27
2022-12-12T01:54:56.182Z,-2.37
2022-12-12T01:57:30.603Z,-2.39
2022-12-12T01:59:59.841Z,-2.42
2022-12-12T02:02:28.982Z,-2.18
2022-12-12T02:05:01.242Z,-2.26
2022-12-12T02:07:29.460Z,-2.23
2022-12-12T02:09:57.650Z,-2.51
2022-12-12T02:12:25.864Z,-2.45
2022-12-12T02:14:55.969Z,-2.37
2022-12-12T02:17:37.743Z,-2.37
2022-12-12T02:20:38.046Z,-2.69
2022-12-12T02:23:36.294Z,-2.62
2022-12-12T02:26:25.402Z,-2.38
2022-12-12T02:29:12.086Z,-2.53
2022-12-12T02:31:50.307Z,-2.70
2022-12-12T02:34:32.707Z,-2.47
2022-12-12T02:37:07.584Z,-2.40
2022-12-12T02:39:45.837Z,-2.53
2022-12-12T02:42:22.897Z,-2.63
2022-12-12T02:44:58.071Z,-2.38
2022-12-12T02:47:31.393Z,-2.41
2022-12-12T02:50:04.280Z,-2.63
2022-12-12T02:52:33.878Z,-2.64
2022-12-12T02:55:02.521Z,-2.54
2022-12-12T02:57:31.193Z,-2.49
2022-12-12T03:00:04.090Z,-2.38
2022-12-12T03:02:48.342Z,-2.56
2022-12-12T03:05:57.959Z,-2.65
2022-12-12T03:08:46.048Z,-2.56
2022-12-12T03:11:21.409Z,-2.68
2022-12-12T03:13:57.574Z,-2.58
2022-12-12T03:16:29.279Z,-2.27
2022-12-12T03:19:07.905Z,-2.27
2022-12-12T03:21:40.735Z,-2.18
2022-12-12T03:24:20.119Z,-2.23
2022-12-12T03:26:53.568Z,-2.21
2022-12-12T03:29:28.282Z,-2.26
2022-12-12T03:32:01.655Z,-2.13
2022-12-12T03:34:37.087Z,-2.31
2022-12-12T03:37:13.855Z,-2.52
2022-12-12T03:39:47.489Z,-2.42
2022-12-12T03:42:25.567Z,-2.47
2022-12-12T03:45:00.165Z,-2.21
2022-12-12T03:47:34.162Z,-2.53
2022-12-12T03:50:09.065Z,-2.22
2022-12-12T03:52:42.600Z,-2.63
2022-12-12T03:55:15.394Z,-2.41
2022-12-12T03:57:48.690Z,-2.46
2022-12-12T04:00:18.244Z,-2.37
2022-12-12T04:02:52.646Z,-2.26
2022-12-12T04:05:26.837Z,-2.47
2022-12-12T04:08:01.942Z,-2.48
2022-12-12T04:10:54.068Z,-2.30
2022-12-12T04:13:33.613Z,-2.48
2022-12-12T04:16:06.732Z,-2.37
2022-12-12T04:18:40.630Z,-2.38
2022-12-12T04:21:39.983Z,-2.57
2022-12-12T04:24:21.438Z,-2.12
2022-12-12T04:26:56.817Z,-2.37
2022-12-12T04:29:32.139Z,-2.25
2022-12-12T04:32:08.963Z,-2.43
2022-12-12T04:34:44.429Z,-2.36
2022-12-12T04:37:18.261Z,-2.35
2022-12-12T04:39:49.667Z,-2.63
2022-12-12T04:42:22.684Z,-2.42
2022-12-12T04:44:56.103Z,-2.41
2022-12-12T04:47:26.783Z,-2.26
2022-12-12T04:49:57.968Z,-2.48
2022-12-12T04:52:32.612Z,-2.39
2022-12-12T04:55:04.591Z,-2.45
2022-12-12T04:57:39.906Z,-2.34
2022-12-12T05:00:09.967Z,-2.25
2022-12-12T05:02:46.284Z,-2.24
2022-12-12T05:05:20.189Z,-2.28
2022-12-12T05:07:53.998Z,-2.56
2022-12-12T05:10:22.518Z,-2.21
2022-12-12T05:12:52.400Z,-2.65
2022-12-12T05:15:22.082Z,-2.44
2022-12-12T05:18:02.895Z,-2.67
2022-12-12T05:20:31.013Z,-2.48
2022-12-12T05:23:00.493Z,-2.58
2022-12-12T05:25:28.720Z,-2.58
2022-12-12T05:27:57.072Z,-2.38
2022-12-12T05:30:26.614Z,-2.37
2022-12-12T05:32:55.096Z,-2.31
2022-12-12T05:35:23.588Z,-2.35
2022-12-12T05:37:52.273Z,-2.17
2022-12-12T05:40:23.473Z,-2.35
2022-12-12T05:42:53.267Z,-2.12
2022-12-12T05:45:21.346Z,-2.23
2022-12-12T05:47:49.794Z,-2.34
2022-12-12T05:50:18.726Z,-2.17
2022-12-12T05:52:46.996Z,-2.18
2022-12-12T05:55:15.572Z,-2.36
2022-12-12T05:57:45.360Z,-2.03
2022-12-12T06:00:14.361Z,-2.37
2022-12-12T06:02:42.709Z,-2.15
2022-12-12T06:05:11.581Z,-2.07
2022-12-12T06:07:40.265Z,-2.11
2022-12-12T06:10:09.577Z,-2.21
2022-12-12T06:12:37.639Z,-2.18
2022-12-12T06:15:07.965Z,-2.17
2022-12-12T06:17:36.232Z,-2.21
2022-12-12T06:20:05.860Z,-2.27
2022-12-12T06:22:35.978Z,-2.29
2022-12-12T06:25:05.003Z,-2.25
2022-12-12T06:27:33.105Z,-2.19
2022-12-12T06:30:01.467Z,-2.03
2022-12-12T06:32:30.990Z,-2.11
2022-12-12T06:34:59.180Z,-2.01
2022-12-12T06:37:27.323Z,-2.11
2022-12-12T06:39:55.532Z,-2.47
2022-12-12T06:42:23.559Z,-2.05
2022-12-12T06:44:51.638Z,-2.00
2022-12-12T06:47:19.936Z,-1.87
2022-12-12T06:49:49.299Z,-1.78
2022-12-12T06:52:17.428Z,-2.11
2022-12-12T06:54:45.568Z,-1.87
2022-12-12T06:57:14.072Z,-2.09
2022-12-12T06:59:42.257Z,-1.85
2022-12-12T07:02:12.562Z,-1.92
2022-12-12T07:04:40.764Z,-1.96
2022-12-12T07:07:10.298Z,-2.03
2022-12-12T07:09:38.442Z,-2.10
2022-12-12T07:12:06.726Z,-2.12
2022-12-12T07:14:35.034Z,-2.32
2022-12-12T07:17:03.056Z,-2.13
2022-12-12T07:19:31.209Z,-1.91
2022-12-12T07:22:02.850Z,-2.12
2022-12-12T07:24:35.382Z,-2.24
2022-12-12T07:27:03.421Z,-2.13
2022-12-12T07:29:31.568Z,-2.04
2022-12-12T07:32:00.101Z,-1.98
2022-12-12T07:34:30.423Z,-2.02
2022-12-12T07:37:02.923Z,-2.07
2022-12-12T07:39:31.740Z,-2.13
2022-12-12T07:42:01.485Z,-2.10
2022-12-12T07:44:29.683Z,-2.26
2022-12-12T07:46:59.099Z,-1.98
2022-12-12T07:49:29.050Z,-2.17
2022-12-12T07:51:57.420Z,-1.85
2022-12-12T07:54:25.471Z,-1.87
2022-12-12T07:56:53.710Z,-2.03
2022-12-12T07:59:23.151Z,-1.82
2022-12-12T08:01:51.291Z,-1.88
2022-12-12T08:04:19.437Z,-1.79
2022-12-12T08:06:49.980Z,-1.90
2022-12-12T08:09:20.181Z,-2.02
2022-12-12T08:11:48.217Z,-1.62
2022-12-12T08:14:16.638Z,-1.65
2022-12-12T08:16:46.121Z,-1.72
2022-12-12T08:19:14.209Z,-1.69
2022-12-12T08:21:42.975Z,-1.30
2022-12-12T08:24:13.120Z,-1.60
2022-12-12T08:26:41.269Z,-1.92
2022-12-12T08:29:10.778Z,-1.66
2022-12-12T08:31:39.541Z,-1.47
2022-12-12T08:34:09.819Z,-1.61
2022-12-12T08:36:38.134Z,-1.79
2022-12-12T08:39:09.534Z,-1.75
2022-12-12T08:41:40.356Z,-1.70
2022-12-12T08:44:10.031Z,-1.41
2022-12-12T08:46:38.474Z,-1.42
2022-12-12T08:49:06.762Z,-1.32
2022-12-12T08:51:36.178Z,-1.49
2022-12-12T08:54:04.473Z,-0.92
2022-12-12T08:56:32.628Z,-1.33
2022-12-12T08:59:01.230Z,-1.52
2022-12-12T09:01:29.728Z,-1.57
2022-12-12T09:03:58.690Z,-1.47
2022-12-12T09:06:28.016Z,-1.40
2022-12-12T09:08:58.398Z,-1.44
2022-12-12T09:11:27.210Z,-1.28
2022-12-12T09:13:55.478Z,-1.44
2022-12-12T09:16:26.552Z,-1.20
2022-12-12T09:18:54.880Z,-1.14
2022-12-12T09:21:23.357Z,-0.70
2022-12-12T09:23:51.639Z,-0.93
2022-12-12T09:26:21.247Z,-0.80
2022-12-12T09:28:50.458Z,-1.09
2022-12-12T09:31:19.228Z,-0.81
2022-12-12T09:33:47.820Z,-0.65
2022-12-12T09:36:15.982Z,-1.05
2022-12-12T09:38:44.842Z,-0.93
2022-12-12T09:41:15.954Z,-1.08
2022-12-12T09:43:52.384Z,-0.89
2022-12-12T09:46:34.766Z,-0.96
2022-12-12T09:49:12.639Z,-0.96
2022-12-12T09:51:41.843Z,-0.91
2022-12-12T09:54:14.547Z,-0.67
2022-12-12T09:56:52.121Z,-0.79
2022-12-12T09:59:28.782Z,-0.57
2022-12-12T10:02:05.653Z,-0.71
2022-12-12T10:04:40.614Z,-0.65
2022-12-12T10:07:18.337Z,-0.86
2022-12-12T10:10:03.992Z,-1.01
2022-12-12T10:12:34.701Z,-0.80
2022-12-12T10:15:08.280Z,-0.95
2022-12-12T10:17:41.443Z,-0.75
2022-12-12T10:20:16.743Z,-0.68
2022-12-12T10:22:49.473Z,-0.77
2022-12-12T10:25:22.368Z,-1.13
2022-12-12T10:27:53.256Z,-1.13
2022-12-12T10:30:23.171Z,-0.96
2022-12-12T10:33:14.988Z,-0.52
2022-12-12T10:35:54.596Z,-0.34
2022-12-12T10:38:37.640Z,-0.66
2022-12-12T10:41:13.116Z,-0.68
2022-12-12T10:43:47.598Z,-0.84
2022-12-12T10:46:29.356Z,-0.69
2022-12-12T10:48:58.188Z,-0.57
2022-12-12T10:51:30.606Z,-0.63
2022-12-12T10:53:58.785Z,-0.47
2022-12-12T10:56:29.009Z,-0.62
2022-12-12T10:58:59.461Z,-0.69
2022-12-12T11:02:00.975Z,-0.60
2022-12-12T11:04:22.448Z,-0.93
2022-12-12T11:06:53.656Z,-0.53
2022-12-12T11:09:26.019Z,-0.71
2022-12-12T11:11:59.684Z,-0.87
2022-12-12T11:14:33.791Z,-0.54
2022-12-12T11:17:03.560Z,-0.46
2022-12-12T11:19:40.033Z,-0.75
2022-12-12T11:22:13.615Z,-0.83
2022-12-12T11:24:45.869Z,-0.45
2022-12-12T11:27:22.865Z,-0.19
2022-12-12T11:29:54.010Z,-0.48
2022-12-12T11:32:27.084Z,-0.44
2022-12-12T11:34:59.065Z,-0.42
2022-12-12T11:37:31.268Z,-0.38
2022-12-12T11:39:59.478Z,-0.42
2022-12-12T11:42:29.920Z,-0.47
2022-12-12T11:45:03.103Z,-0.52
2022-12-12T11:47:40.788Z,-0.69
2022-12-12T11:50:23.772Z,-0.57
2022-12-12T11:52:56.110Z,-0.85
2022-12-12T11:55:35.011Z,0.02
2022-12-12T11:58:14.888Z,-0.43
2022-12-12T12:00:50.518Z,-0.06
2022-12-12T12:03:48.098Z,0.12
2022-12-12T12:06:33.480Z,0.02
2022-12-12T12:09:17.612Z,-0.21
2022-12-12T12:11:56.465Z,-0.16
2022-12-12T12:14:40.728Z,-0.13
2022-12-12T12:17:17.383Z,-0.17
2022-12-12T12:19:54.949Z,-0.53
2022-12-12T12:22:32.243Z,-0.17
2022-12-12T12:25:31.837Z,-0.32
2022-12-12T12:28:13.818Z,-0.31
2022-12-12T12:30:55.875Z,-0.14
2022-12-12T12:33:35.569Z,-0.41
2022-12-12T12:36:20.905Z,-0.49
2022-12-12T12:39:12.673Z,-0.17
2022-12-12T12:41:57.185Z,-0.49
2022-12-12T12:44:45.423Z,-0.66
2022-12-12T12:47:27.848Z,-0.66
2022-12-12T12:50:00.611Z,-0.29
2022-12-12T12:52:36.411Z,-0.50
2022-12-12T12:55:13.418Z,-0.56
2022-12-12T12:57:45.499Z,-0.64
2022-12-12T13:00:18.096Z,-0.48
2022-12-12T13:02:51.866Z,-0.37
2022-12-12T13:06:45.561Z,-0.36
2022-12-12T13:09:28.944Z,-0.79
2022-12-12T13:12:02.542Z,-0.49
2022-12-12T13:14:41.159Z,-0.65
2022-12-12T13:17:17.837Z,-0.44
2022-12-12T13:19:48.256Z,-0.60
2022-12-12T13:22:25.630Z,-0.53
2022-12-12T13:25:00.585Z,-0.90
2022-12-12T13:27:35.303Z,-0.88
2022-12-12T13:30:10.158Z,-0.29
2022-12-12T13:32:57.251Z,-0.64
2022-12-12T13:35:30.820Z,-0.65
2022-12-12T13:38:01.643Z,-0.54
2022-12-12T13:40:32.144Z,-0.58
2022-12-12T13:43:09.176Z,-0.23
2022-12-12T13:45:42.961Z,-0.08
2022-12-12T13:48:34.399Z,-0.40
2022-12-12T13:51:38.940Z,-0.50
2022-12-12T13:54:52.985Z,-0.81
2022-12-12T13:57:33.573Z,-0.77
2022-12-12T14:00:22.875Z,-0.69
2022-12-12T14:03:01.695Z,-0.64
2022-12-12T14:05:34.221Z,-0.88
2022-12-12T14:08:08.211Z,-0.95
2022-12-12T14:10:38.999Z,-0.69
2022-12-12T14:13:30.131Z,-0.52
2022-12-12T14:16:04.537Z,-0.47
2022-12-12T14:18:36.998Z,-0.46
2022-12-12T14:21:08.432Z,-0.48
2022-12-12T14:23:38.278Z,-0.49
2022-12-12T14:26:39.686Z,-0.46
2022-12-12T14:29:28.869Z,-0.30
2022-12-12T14:32:16.820Z,-0.42
2022-12-12T14:34:51.030Z,-0.38
2022-12-12T14:37:51.360Z,-0.55
2022-12-12T14:40:22.947Z,-0.44
2022-12-12T14:43:19.081Z,-0.70
2022-12-12T14:45:56.206Z,-0.49
2022-12-12T14:48:27.803Z,-0.53
2022-12-12T14:51:00.579Z,-0.47
2022-12-12T14:53:36.457Z,-0.45
2022-12-12T14:56:10.094Z,-0.71
2022-12-12T14:58:41.427Z,-0.63
2022-12-12T15:01:11.504Z,-0.74
2022-12-12T15:03:44.136Z,-0.67
2022-12-12T15:06:38.115Z,-0.41
2022-12-12T15:09:18.665Z,-0.47
2022-12-12T15:11:48.444Z,-0.77
2022-12-12T15:14:20.304Z,-0.83
2022-12-12T15:16:57.223Z,-0.81
2022-12-12T15:19:30.070Z,-0.79
2022-12-12T15:21:59.162Z,-1.05
2022-12-12T15:24:30.154Z,-1.06
2022-12-12T15:27:00.083Z,-1.04
2022-12-12T15:29:32.219Z,-1.20
2022-12-12T15:32:05.104Z,-1.21
2022-12-12T15:34:40.355Z,-0.95
2022-12-12T15:37:21.045Z,-0.97
2022-12-12T15:40:00.941Z,-1.17
2022-12-12T15:42:29.654Z,-1.06
2022-12-12T15:44:58.271Z,-0.81
2022-12-12T15:47:27.951Z,-1.00
2022-12-12T15:49:56.366Z,-1.33
2022-12-12T15:52:28.258Z,-1.21
2022-12-12T15:54:58.250Z,-1.23
2022-12-12T15:57:28.711Z,-1.14
2022-12-12T16:00:01.280Z,-1.12
2022-12-12T16:02:32.271Z,-1.28
2022-12-12T16:05:06.950Z,-1.57
2022-12-12T16:07:37.822Z,-1.27
2022-12-12T16:10:22.764Z,-1.42
2022-12-12T16:13:00.245Z,-1.53
2022-12-12T16:15:35.020Z,-1.47
2022-12-12T16:18:07.845Z,-1.55
2022-12-12T16:20:36.223Z,-1.46
2022-12-12T16:23:18.578Z,-1.79
2022-12-12T16:25:49.820Z,-1.54
2022-12-12T16:28:25.897Z,-1.16
2022-12-12T16:30:58.059Z,-1.55
2022-12-12T16:33:31.372Z,-1.42
2022-12-12T16:36:01.693Z,-1.49
2022-12-12T16:38:30.509Z,-1.58
2022-12-12T16:41:01.976Z,-1.53
2022-12-12T16:43:30.508Z,-1.83
2022-12-12T16:45:59.676Z,-2.02
2022-12-12T16:48:33.446Z,-2.16
2022-12-12T16:51:04.275Z,-1.65
2022-12-12T16:53:32.991Z,-1.87
2022-12-12T16:56:03.150Z,-1.98
2022-12-12T16:58:33.510Z,-1.87
2022-12-12T17:01:02.906Z,-2.40
2022-12-12T17:03:32.952Z,-2.20
2022-12-12T17:06:02.589Z,-2.02
2022-12-12T17:08:30.854Z,-1.78
2022-12-12T17:11:09.602Z,-1.83
2022-12-12T17:13:40.699Z,-2.14
2022-12-12T17:16:09.217Z,-2.00
2022-12-12T17:18:38.709Z,-1.66
2022-12-12T17:21:07.176Z,-2.07
2022-12-12T17:23:35.283Z,-2.17
2022-12-12T17:26:05.074Z,-2.21
2022-12-12T17:28:35.160Z,-2.27
2022-12-12T17:31:07.810Z,-2.45
2022-12-12T17:33:45.796Z,-2.21
2022-12-12T17:36:20.175Z,-2.13
2022-12-12T17:38:48.814Z,-2.28
2022-12-12T17:41:16.900Z,-2.32
2022-12-12T17:43:46.553Z,-2.30
2022-12-12T17:46:18.981Z,-2.37
2022-12-12T17:48:49.100Z,-2.44
2022-12-12T17:51:21.971Z,-2.15
2022-12-12T17:53:52.485Z,-2.48
2022-12-12T17:56:22.770Z,-2.24
2022-12-12T17:58:52.426Z,-2.19
2022-12-12T18:01:23.611Z,-2.25
2022-12-12T18:03:52.667Z,-2.46
2022-12-12T18:06:23.910Z,-2.42
2022-12-12T18:08:54.648Z,-2.30
2022-12-12T18:11:26.965Z,-2.26
2022-12-12T18:13:57.694Z,-2.23
2022-12-12T18:16:29.237Z,-2.46
2022-12-12T18:18:58.064Z,-2.52
2022-12-12T18:21:59.013Z,-2.37
2022-12-12T18:24:19.828Z,-2.18
2022-12-12T18:26:52.687Z,-2.57
2022-12-12T18:29:22.178Z,-2.33
2022-12-12T18:31:50.269Z,-2.39
2022-12-12T18:34:18.891Z,-2.13
2022-12-12T18:36:49.358Z,-2.39
2022-12-12T18:39:17.933Z,-2.58
2022-12-12T18:41:46.218Z,-2.09
2022-12-12T18:44:16.033Z,-2.13
2022-12-12T18:46:44.867Z,-1.77
2022-12-12T18:49:15.675Z,-1.85
2022-12-12T18:51:45.434Z,-2.16
2022-12-12T18:54:17.055Z,-1.91
2022-12-12T18:56:46.303Z,-2.29
2022-12-12T18:59:15.471Z,-2.27
2022-12-12T19:01:44.088Z,-2.38
2022-12-12T19:04:16.266Z,-2.53
2022-12-12T19:06:49.492Z,-2.44
2022-12-12T19:09:20.604Z,-2.62
2022-12-12T19:11:54.227Z,-2.50
2022-12-12T19:14:35.694Z,-2.24
2022-12-12T19:17:08.672Z,-2.24
2022-12-12T19:19:36.877Z,-2.47
2022-12-12T19:22:18.555Z,-2.49
2022-12-12T19:24:54.440Z,-2.27
2022-12-12T19:27:22.746Z,-2.49
2022-12-12T19:29:51.413Z,-2.06
2022-12-12T19:32:19.825Z,-2.11
2022-12-12T19:34:49.511Z,-2.25
2022-12-12T19:37:17.650Z,-2.23
2022-12-12T19:39:45.732Z,-1.97
2022-12-12T19:42:15.431Z,-1.96
2022-12-12T19:44:43.881Z,-2.06
2022-12-12T19:47:13.147Z,-1.95
2022-12-12T19:49:41.541Z,-2.09
2022-12-12T19:52:14.017Z,-2.12
2022-12-12T19:54:44.529Z,-2.06
2022-12-12T19:57:12.754Z,-2.34
2022-12-12T19:59:42.338Z,-2.03
2022-12-12T20:02:11.428Z,-2.25
2022-12-12T20:04:40.044Z,-2.20
2022-12-12T20:07:08.286Z,-1.95
2022-12-12T20:09:37.121Z,-2.19
2022-12-12T20:12:06.090Z,-2.37
2022-12-12T20:14:35.911Z,-2.06
2022-12-12T20:17:05.596Z,-1.80
2022-12-12T20:19:33.894Z,-2.01
2022-12-12T20:22:03.332Z,-2.12
2022-12-12T20:24:32.827Z,-2.29
2022-12-12T20:27:04.531Z,-2.33
2022-12-12T20:29:33.554Z,-2.29
2022-12-12T20:32:01.994Z,-2.54
2022-12-12T20:34:31.472Z,-2.25
2022-12-12T20:36:59.613Z,-2.08
2022-12-12T20:39:28.285Z,-2.18
2022-12-12T20:41:57.494Z,-1.90
2022-12-12T20:44:26.198Z,-2.43
2022-12-12T20:46:54.892Z,-2.07
2022-12-12T20:49:24.789Z,-2.30
2022-12-12T20:51:56.291Z,-2.23
2022-12-12T20:54:25.387Z,-2.02
2022-12-12T20:56:54.441Z,-2.03
2022-12-12T20:59:23.751Z,-1.97
2022-12-12T21:01:52.494Z,-1.91
2022-12-12T21:04:21.295Z,-2.15
2022-12-12T21:06:51.196Z,-2.36
2022-12-12T21:09:25.343Z,-1.73
2022-12-12T21:11:54.861Z,-1.80
2022-12-12T21:14:24.339Z,-1.90
2022-12-12T21:16:53.009Z,-2.14
2022-12-12T21:19:23.445Z,-2.23
2022-12-12T21:21:52.175Z,-2.36
2022-12-12T21:24:22.798Z,-2.00
2022-12-12T21:26:51.106Z,-2.15
2022-12-12T21:29:19.116Z,-2.25
2022-12-12T21:31:51.647Z,-2.20
2022-12-12T21:34:21.761Z,-2.11
2022-12-12T21:36:52.147Z,-2.03
2022-12-12T21:39:22.104Z,-2.16
2022-12-12T21:41:51.399Z,-2.40
2022-12-12T21:44:20.110Z,-2.04
2022-12-12T21:46:49.201Z,-1.85
2022-12-12T21:49:30.987Z,-1.96
2022-12-12T21:52:01.255Z,-2.19
2022-12-12T21:54:31.857Z,-2.08
2022-12-12T21:57:02.379Z,-2.02
2022-12-12T21:59:31.618Z,-2.27
2022-12-12T22:02:01.289Z,-1.92
2022-12-12T22:04:29.597Z,-2.31
2022-12-12T22:06:59.566Z,-2.30
2022-12-12T22:09:27.921Z,-2.45
2022-12-12T22:12:03.595Z,-2.40
2022-12-12T22:14:33.626Z,-2.41
2022-12-12T22:17:03.506Z,-2.14
2022-12-12T22:19:32.004Z,-1.98
2022-12-12T22:22:00.074Z,-1.82
2022-12-12T22:24:28.627Z,-1.51
2022-12-12T22:26:58.181Z,-1.78
2022-12-12T22:29:26.357Z,-1.65
2022-12-12T22:31:54.586Z,-1.67
2022-12-12T22:34:24.863Z,-1.81
2022-12-12T22:36:54.609Z,-2.20
2022-12-12T22:39:24.935Z,-2.35
2022-12-12T22:41:55.400Z,-2.10
2022-12-12T22:44:26.851Z,-2.25
2022-12-12T22:46:56.573Z,-2.12
2022-12-12T22:49:27.033Z,-2.01
2022-12-12T22:51:56.901Z,-2.21
2022-12-12T22:54:25.790Z,-2.10
2022-12-12T22:56:54.231Z,-2.35
2022-12-12T22:59:22.410Z,-2.47
2022-12-12T23:01:51.855Z,-2.28
2022-12-12T23:04:20.176Z,-2.48
2022-12-12T23:06:48.346Z,-2.31
2022-12-12T23:09:21.389Z,-2.14
2022-12-12T23:11:50.780Z,-2.08
2022-12-12T23:14:22.782Z,-2.09
2022-12-12T23:16:52.965Z,-2.29
2022-12-12T23:19:23.594Z,-2.24
2022-12-12T23:21:53.008Z,-2.34
2022-12-12T23:24:21.216Z,-2.72
2022-12-12T23:26:51.854Z,-2.35
2022-12-12T23:29:20.797Z,-2.45
2022-12-12T23:31:49.317Z,-2.38
2022-12-12T23:34:22.945Z,-2.47
2022-12-12T23:36:52.002Z,-2.20
2022-12-12T23:39:20.704Z,-2.13
2022-12-12T23:41:48.895Z,-2.56
2022-12-12T23:44:20.185Z,-2.46
2022-12-12T23:46:48.347Z,-2.80
2022-12-12T23:49:20.742Z,-2.53
2022-12-12T23:51:50.489Z,-2.57
2022-12-12T23:54:20.718Z,-2.33
2022-12-12T23:56:51.378Z,-2.40
2022-12-12T23:59:21.201Z,-2.24
